createdAt,value
2019-01-31T05:03:47.433Z,94.848633
2019-01-31T05:07:15.330Z,94.744873
2019-01-31T05:10:44.205Z,94.848633
2019-01-31T05:14:12.074Z,94.744873
2019-01-31T05:17:39.967Z,94.744873
2019-01-31T05:21:07.859Z,94.744873
2019-01-31T05:24:35.738Z,94.952393
2019-01-31T05:28:03.635Z,94.848633
2019-01-31T05:31:32.517Z,94.952393
2019-01-31T05:35:00.495Z,94.744873
2019-01-31T05:38:28.271Z,94.848633
2019-01-31T05:41:56.156Z,94.641113
2019-01-31T05:45:24.044Z,94.641113
2019-01-31T05:48:51.916Z,94.42749
2019-01-31T05:52:19.800Z,94.537354
2019-01-31T05:55:47.689Z,94.42749
2019-01-31T05:59:15.571Z,94.42749
2019-01-31T06:02:43.452Z,94.42749
2019-01-31T06:06:12.327Z,94.32373
2019-01-31T06:09:41.203Z,94.32373
2019-01-31T06:13:09.078Z,94.219971
2019-01-31T06:16:36.961Z,94.32373
2019-01-31T06:20:04.850Z,94.219971
2019-01-31T06:23:32.713Z,94.42749
2019-01-31T06:27:00.603Z,94.32373
2019-01-31T06:30:28.493Z,94.32373
2019-01-31T06:33:56.365Z,94.116211
2019-01-31T06:37:24.244Z,94.116211
2019-01-31T06:40:53.128Z,94.219971
2019-01-31T06:44:21.012Z,94.116211
2019-01-31T06:47:48.879Z,93.798828
2019-01-31T06:51:16.779Z,93.591309
2019-01-31T06:54:44.678Z,93.591309
2019-01-31T06:58:12.549Z,93.383789
2019-01-31T07:01:40.428Z,93.487549
2019-01-31T07:05:08.326Z,93.487549
2019-01-31T07:08:36.201Z,93.652344
2019-01-31T07:12:04.088Z,93.652344
2019-01-31T07:15:31.973Z,93.548584
2019-01-31T07:18:59.857Z,93.444824
2019-01-31T07:22:27.758Z,93.237305
2019-01-31T07:25:55.646Z,93.127441
2019-01-31T07:29:23.521Z,92.919922
2019-01-31T07:32:52.402Z,92.816162
2019-01-31T07:36:20.287Z,92.669678
2019-01-31T07:39:48.154Z,92.669678
2019-01-31T07:43:16.048Z,92.456055
2019-01-31T07:46:43.933Z,92.144775
2019-01-31T07:50:11.809Z,92.041016
2019-01-31T07:53:39.709Z,91.833496
2019-01-31T07:57:07.605Z,91.723633
2019-01-31T08:00:35.497Z,91.723633
2019-01-31T08:04:03.370Z,91.619873
2019-01-31T08:07:31.258Z,91.516113
2019-01-31T08:10:59.145Z,91.790771
2019-01-31T08:14:28.013Z,91.473389
2019-01-31T08:17:55.899Z,91.369629
2019-01-31T08:21:23.789Z,91.369629
2019-01-31T08:24:51.661Z,91.162109
2019-01-31T08:28:19.548Z,91.473389
2019-01-31T08:31:47.437Z,91.369629
2019-01-31T08:35:15.317Z,91.473389
2019-01-31T08:38:44.201Z,91.577148
2019-01-31T08:42:12.099Z,91.369629
2019-01-31T08:45:40.029Z,91.473389
2019-01-31T08:49:07.902Z,91.369629
2019-01-31T08:52:35.790Z,91.265869
2019-01-31T08:56:04.667Z,91.369629
2019-01-31T08:59:32.536Z,91.369629
2019-01-31T09:03:00.423Z,91.223145
2019-01-31T09:06:28.318Z,91.326904
2019-01-31T09:09:56.187Z,91.223145
2019-01-31T09:13:24.072Z,90.594482
2019-01-31T09:16:51.964Z,90.698242
2019-01-31T09:20:20.838Z,90.698242
2019-01-31T09:23:49.705Z,90.594482
2019-01-31T09:27:17.598Z,90.808105
2019-01-31T09:30:45.489Z,90.283203
2019-01-31T09:34:13.362Z,90.490723
2019-01-31T09:37:41.248Z,90.075684
2019-01-31T09:41:10.131Z,90.386963
2019-01-31T09:44:38.011Z,89.96582
2019-01-31T09:48:05.890Z,90.698242
2019-01-31T09:51:33.780Z,90.594482
2019-01-31T09:55:01.652Z,90.179443
2019-01-31T09:58:29.559Z,90.283203
2019-01-31T10:01:57.460Z,90.075684
2019-01-31T10:05:25.346Z,89.825439
2019-01-31T10:08:53.217Z,89.575195
2019-01-31T10:12:23.394Z,89.050293
2019-01-31T10:15:52.972Z,88.171387
2019-01-31T10:19:23.213Z,88.067627
2019-01-31T10:22:49.761Z,87.402344
2019-01-31T10:26:17.607Z,86.94458
2019-01-31T10:29:45.483Z,85.900879
2019-01-31T10:33:15.356Z,85.650635
2019-01-31T10:36:43.240Z,84.674072
2019-01-31T10:40:11.114Z,84.326172
2019-01-31T10:43:39.002Z,83.843994
2019-01-31T10:47:06.887Z,84.466553
2019-01-31T10:50:34.776Z,84.295654
2019-01-31T10:54:02.641Z,85.235596
2019-01-31T10:57:30.533Z,85.339355
2019-01-31T11:00:58.408Z,85.235596
2019-01-31T11:04:26.314Z,85.546875
2019-01-31T11:07:56.187Z,85.443115
2019-01-31T11:11:25.066Z,85.650635
2019-01-31T11:14:52.938Z,85.339355
2019-01-31T11:18:21.812Z,85.38208
2019-01-31T11:21:49.696Z,86.279297
2019-01-31T11:25:17.570Z,86.175537
2019-01-31T11:28:45.457Z,86.071777
2019-01-31T11:32:13.340Z,86.590576
2019-01-31T11:35:42.216Z,86.279297
2019-01-31T11:39:11.081Z,86.108398
2019-01-31T11:42:38.965Z,85.900879
2019-01-31T11:46:06.850Z,85.968018
2019-01-31T11:49:34.717Z,85.760498
2019-01-31T11:53:02.609Z,85.864258
2019-01-31T11:56:30.513Z,86.383057
2019-01-31T11:59:58.379Z,85.968018
2019-01-31T12:03:26.264Z,86.315918
2019-01-31T12:06:54.160Z,86.212158
2019-01-31T12:10:22.034Z,86.529541
2019-01-31T12:13:49.915Z,86.279297
2019-01-31T12:17:17.799Z,85.968018
2019-01-31T12:20:45.671Z,86.279297
2019-01-31T12:24:16.266Z,86.071777
2019-01-31T12:27:43.437Z,85.546875
2019-01-31T12:31:11.333Z,85.339355
2019-01-31T12:34:39.218Z,85.650635
2019-01-31T12:38:08.095Z,85.717773
2019-01-31T12:41:35.965Z,85.406494
2019-01-31T12:45:03.888Z,85.821533
2019-01-31T12:48:31.770Z,85.650635
2019-01-31T12:52:00.650Z,85.760498
2019-01-31T12:55:29.506Z,86.029053
2019-01-31T12:58:57.392Z,85.614014
2019-01-31T13:02:25.281Z,85.614014
2019-01-31T13:05:53.161Z,85.198975
2019-01-31T13:09:21.049Z,84.844971
2019-01-31T13:12:49.929Z,85.05249
2019-01-31T13:16:17.800Z,85.15625
2019-01-31T13:19:45.684Z,84.94873
2019-01-31T13:23:13.572Z,84.741211
2019-01-31T13:26:41.445Z,84.741211
2019-01-31T13:30:09.329Z,84.637451
2019-01-31T13:33:37.220Z,84.741211
2019-01-31T13:37:05.094Z,84.912109
2019-01-31T13:40:33.971Z,83.868408
2019-01-31T13:44:01.857Z,83.624268
2019-01-31T13:47:29.937Z,83.728027
2019-01-31T13:50:57.808Z,83.270264
2019-01-31T13:54:25.700Z,81.921387
2019-01-31T13:57:53.602Z,82.232666
2019-01-31T14:01:21.466Z,81.604004
2019-01-31T14:04:49.345Z,81.707764
2019-01-31T14:08:17.236Z,81.292725
2019-01-31T14:11:45.108Z,82.543945
2019-01-31T14:15:12.991Z,81.811523
2019-01-31T14:18:40.874Z,81.921387
2019-01-31T14:22:09.734Z,82.232666
2019-01-31T14:25:37.618Z,81.359863
2019-01-31T14:29:05.506Z,80.944824
2019-01-31T14:32:33.380Z,81.188965
2019-01-31T14:36:01.269Z,81.396484
2019-01-31T14:39:30.054Z,81.188965
2019-01-31T14:42:57.936Z,81.396484
2019-01-31T14:46:25.802Z,81.188965
2019-01-31T14:49:53.694Z,81.463623
2019-01-31T14:53:21.574Z,81.292725
2019-01-31T14:56:49.447Z,81.671143
2019-01-31T15:00:17.334Z,81.188965
2019-01-31T15:03:45.227Z,82.025146
2019-01-31T15:07:15.077Z,82.543945
2019-01-31T15:10:45.781Z,82.788086
2019-01-31T15:14:11.836Z,83.557129
2019-01-31T15:17:39.703Z,84.222412
2019-01-31T15:21:07.585Z,85.095215
2019-01-31T15:24:35.471Z,85.821533
2019-01-31T15:28:03.341Z,86.486816
2019-01-31T15:31:31.235Z,87.219238
2019-01-31T15:34:59.119Z,87.634277
2019-01-31T15:38:27.004Z,87.95166
2019-01-31T15:41:54.889Z,88.409424
2019-01-31T15:45:22.776Z,88.409424
2019-01-31T15:48:50.649Z,88.928223
2019-01-31T15:52:19.522Z,89.135742
2019-01-31T15:55:48.397Z,89.385986
2019-01-31T15:59:16.314Z,89.385986
2019-01-31T16:02:44.185Z,89.807129
2019-01-31T16:06:12.115Z,90.264893
2019-01-31T16:09:39.944Z,90.679932
2019-01-31T16:13:07.877Z,91.033936
2019-01-31T16:16:35.726Z,91.247559
2019-01-31T16:20:03.616Z,91.601562
2019-01-31T16:23:31.488Z,91.955566
2019-01-31T16:26:59.375Z,92.791748
2019-01-31T16:30:27.258Z,93.42041
2019-01-31T16:33:55.135Z,94.152832
2019-01-31T16:37:23.021Z,94.360352
2019-01-31T16:40:50.910Z,94.299316
2019-01-31T16:44:19.774Z,94.616699
2019-01-31T16:47:47.656Z,94.512939
2019-01-31T16:51:15.546Z,95.349121
2019-01-31T16:54:43.434Z,95.245361
2019-01-31T16:58:11.322Z,94.970703
2019-01-31T17:01:39.210Z,95.391846
2019-01-31T17:05:07.080Z,95.64209
2019-01-31T17:08:34.969Z,96.063232
2019-01-31T17:12:02.852Z,96.374512
2019-01-31T17:15:30.735Z,96.795654
2019-01-31T17:18:58.595Z,96.691895
2019-01-31T17:22:27.724Z,96.588135
2019-01-31T17:25:56.811Z,96.899414
2019-01-31T17:29:24.699Z,97.216797
2019-01-31T17:32:52.571Z,97.113037
2019-01-31T17:36:21.441Z,97.174072
2019-01-31T17:39:50.304Z,96.960449
2019-01-31T17:43:18.189Z,96.64917
2019-01-31T17:46:46.084Z,96.484375
2019-01-31T17:50:13.957Z,96.313477
2019-01-31T17:53:41.841Z,96.630859
2019-01-31T17:57:09.727Z,96.942139
2019-01-31T18:00:37.622Z,97.198486
2019-01-31T18:04:05.533Z,97.198486
2019-01-31T18:07:35.468Z,97.302246
2019-01-31T18:11:03.395Z,97.406006
2019-01-31T18:14:31.336Z,97.766113
2019-01-31T18:17:59.293Z,98.248291
2019-01-31T18:21:28.203Z,98.144531
2019-01-31T18:24:56.119Z,97.979736
2019-01-31T18:28:24.082Z,97.979736
2019-01-31T18:31:52.007Z,97.918701
2019-01-31T18:35:19.944Z,98.126221
2019-01-31T18:38:47.868Z,98.168945
2019-01-31T18:42:15.799Z,98.382568
2019-01-31T18:45:52.878Z,98.754883
2019-01-31T18:49:18.622Z,98.907471
2019-01-31T18:52:46.638Z,99.01123
2019-01-31T18:56:14.562Z,99.21875
2019-01-31T18:59:42.521Z,99.328613
2019-01-31T19:03:10.451Z,99.536133
2019-01-31T19:06:38.397Z,99.700928
2019-01-31T19:10:06.299Z,99.700928
2019-01-31T19:13:34.211Z,99.908447
2019-01-31T19:17:02.130Z,99.993896
2019-01-31T19:20:30.037Z,99.993896
2019-01-31T19:23:58.150Z,99.993896
2019-01-31T19:27:26.434Z,99.993896
2019-01-31T19:30:55.373Z,99.993896
2019-01-31T19:34:23.326Z,99.993896
2019-01-31T19:38:01.423Z,99.993896
2019-01-31T19:41:25.242Z,99.993896
2019-01-31T19:44:53.184Z,99.993896
2019-01-31T19:48:22.235Z,99.87793
2019-01-31T19:51:50.113Z,99.56665
2019-01-31T19:55:18.061Z,99.249268
2019-01-31T19:58:45.987Z,98.937988
2019-01-31T20:02:15.965Z,98.620605
2019-01-31T20:05:43.841Z,98.309326
2019-01-31T20:09:11.765Z,98.205566
2019-01-31T20:12:39.676Z,97.991943
2019-01-31T20:16:07.642Z,97.888184
2019-01-31T20:19:36.529Z,97.680664
2019-01-31T20:23:04.474Z,97.576904
2019-01-31T20:26:33.374Z,97.363281
2019-01-31T20:30:01.292Z,97.259521
2019-01-31T20:33:30.195Z,97.052002
2019-01-31T20:36:58.158Z,96.899414
2019-01-31T20:40:27.044Z,96.691895
2019-01-31T20:43:55.987Z,96.734619
2019-01-31T20:47:23.974Z,96.838379
2019-01-31T20:50:51.897Z,96.942139
2019-01-31T20:54:19.855Z,97.155762
2019-01-31T20:57:47.812Z,97.363281
2019-01-31T21:01:15.740Z,97.259521
2019-01-31T21:04:43.650Z,97.259521
2019-01-31T21:08:11.615Z,97.406006
2019-01-31T21:11:39.569Z,97.406006
2019-01-31T21:15:07.473Z,97.827148
2019-01-31T21:18:36.401Z,97.930908
2019-01-31T21:22:04.357Z,98.040771
2019-01-31T21:25:34.369Z,98.205566
2019-01-31T21:29:02.192Z,98.205566
2019-01-31T21:32:30.129Z,97.991943
2019-01-31T21:35:58.052Z,97.991943
2019-01-31T21:39:26.039Z,97.784424
2019-01-31T21:42:54.000Z,97.680664
2019-01-31T21:46:23.938Z,97.827148
2019-01-31T21:49:51.918Z,97.930908
2019-01-31T21:53:19.877Z,98.248291
2019-01-31T21:56:47.811Z,98.413086
2019-01-31T22:00:15.741Z,98.516846
2019-01-31T22:03:43.701Z,98.474121
2019-01-31T22:07:11.632Z,98.156738
2019-01-31T22:10:39.565Z,97.949219
2019-01-31T22:14:07.499Z,97.631836
2019-01-31T22:17:35.460Z,97.320557
2019-01-31T22:21:03.399Z,97.113037
2019-01-31T22:24:31.354Z,96.899414
2019-01-31T22:27:59.289Z,96.588135
2019-01-31T22:31:27.216Z,96.124268
2019-01-31T22:34:55.210Z,95.703125
2019-01-31T22:38:23.152Z,95.495605
2019-01-31T22:41:51.074Z,95.184326
2019-01-31T22:45:19.003Z,95.074463
2019-01-31T22:48:46.920Z,94.970703
2019-01-31T22:52:14.998Z,94.763184
2019-01-31T22:55:42.883Z,94.927979
2019-01-31T22:59:10.839Z,95.135498
